createdAt,value
2018-05-03T00:00:29.758Z,97345
2018-05-03T00:03:03.360Z,97351
2018-05-03T00:05:35.899Z,97358
2018-05-03T00:08:08.717Z,97366
2018-05-03T00:10:41.365Z,97368
2018-05-03T00:13:13.560Z,97368
2018-05-03T00:15:46.849Z,97377
2018-05-03T00:18:19.818Z,97383
2018-05-03T00:20:54.759Z,97389
2018-05-03T00:23:27.080Z,97394
2018-05-03T00:26:02.341Z,97397
2018-05-03T00:28:34.860Z,97389
2018-05-03T00:31:07.916Z,97397
2018-05-03T00:33:42.064Z,97390
2018-05-03T00:36:14.776Z,97391
2018-05-03T00:38:49.023Z,97384
2018-05-03T00:41:21.185Z,97373
2018-05-03T00:43:54.642Z,97370
2018-05-03T00:46:31.121Z,97368
2018-05-03T00:49:04.498Z,97363
2018-05-03T00:51:37.364Z,97351
2018-05-03T00:54:10.670Z,97346
2018-05-03T00:56:43.560Z,97343
2018-05-03T00:59:16.362Z,97346
2018-05-03T01:01:49.583Z,97345
2018-05-03T01:04:24.428Z,97354
2018-05-03T01:06:56.802Z,97359
2018-05-03T01:09:32.238Z,97369
2018-05-03T01:12:05.460Z,97371
2018-05-03T01:14:37.965Z,97367
2018-05-03T01:17:10.338Z,97366
2018-05-03T01:19:44.421Z,97363
2018-05-03T01:22:17.503Z,97368
2018-05-03T01:24:50.457Z,97373
2018-05-03T01:27:23.685Z,97375
2018-05-03T01:29:56.583Z,97371
2018-05-03T01:32:30.221Z,97372
2018-05-03T01:35:20.297Z,97372
2018-05-03T01:37:54.738Z,97383
2018-05-03T01:40:26.763Z,97395
2018-05-03T01:42:59.344Z,97406
2018-05-03T01:45:32.298Z,97412
2018-05-03T01:48:06.023Z,97425
2018-05-03T01:50:38.103Z,97431
2018-05-03T01:53:10.437Z,97437
2018-05-03T01:55:45.083Z,97438
2018-05-03T01:58:17.922Z,97440
2018-05-03T02:00:52.267Z,97441
2018-05-03T02:03:29.998Z,97439
2018-05-03T02:06:03.307Z,97432
2018-05-03T02:08:36.317Z,97422
2018-05-03T02:11:11.020Z,97412
2018-05-03T02:13:43.846Z,97411
2018-05-03T02:16:17.578Z,97402
2018-05-03T02:18:52.204Z,97394
2018-05-03T02:21:25.679Z,97402
2018-05-03T02:23:59.003Z,97408
2018-05-03T02:26:35.059Z,97414
2018-05-03T02:29:17.503Z,97417
2018-05-03T02:31:50.961Z,97427
2018-05-03T02:34:24.706Z,97428
2018-05-03T02:37:00.001Z,97425
2018-05-03T02:39:36.499Z,97422
2018-05-03T02:42:10.759Z,97422
2018-05-03T02:44:44.148Z,97421
2018-05-03T02:47:18.958Z,97426
2018-05-03T02:49:57.019Z,97423
2018-05-03T02:52:32.082Z,97417
2018-05-03T02:55:07.485Z,97413
2018-05-03T02:58:01.444Z,97417
2018-05-03T03:00:57.405Z,97416
2018-05-03T03:03:51.343Z,97419
2018-05-03T03:06:45.559Z,97415
2018-05-03T03:13:10.276Z,97432
2018-05-03T03:16:03.976Z,97440
2018-05-03T03:18:58.242Z,97442
2018-05-03T03:21:52.240Z,97437
2018-05-03T03:24:42.863Z,97436
2018-05-03T03:27:37.815Z,97435
2018-05-03T03:30:32.156Z,97429
2018-05-03T03:33:21.059Z,97437
2018-05-03T03:36:11.561Z,97437
2018-05-03T03:39:01.209Z,97446
2018-05-03T03:41:42.197Z,97442
2018-05-03T03:44:31.060Z,97448
2018-05-03T03:47:04.036Z,97456
2018-05-03T03:49:37.464Z,97463
2018-05-03T03:52:12.422Z,97465
2018-05-03T03:54:45.223Z,97460
2018-05-03T03:57:18.600Z,97465
2018-05-03T03:59:51.485Z,97468
2018-05-03T04:02:25.035Z,97476
2018-05-03T04:04:57.699Z,97477
2018-05-03T04:07:31.043Z,97476
2018-05-03T04:10:03.377Z,97479
2018-05-03T04:12:36.917Z,97482
2018-05-03T04:15:10.862Z,97478
2018-05-03T04:18:00.401Z,97477
2018-05-03T04:21:06.839Z,97482
2018-05-03T04:23:55.464Z,97486
2018-05-03T04:26:28.248Z,97492
2018-05-03T04:29:02.340Z,97488
2018-05-03T04:31:36.064Z,97491
2018-05-03T04:34:10.579Z,97497
2018-05-03T04:36:46.279Z,97494
2018-05-03T04:39:19.642Z,97498
2018-05-03T04:41:55.125Z,97496
2018-05-03T04:44:27.367Z,97495
2018-05-03T04:47:01.606Z,97499
2018-05-03T04:49:36.018Z,97502
2018-05-03T04:52:08.786Z,97509
2018-05-03T04:54:41.087Z,97511
2018-05-03T04:57:13.582Z,97512
2018-05-03T04:59:47.990Z,97517
2018-05-03T05:02:21.884Z,97522
2018-05-03T05:04:54.862Z,97517
2018-05-03T05:07:28.097Z,97525
2018-05-03T05:10:01.143Z,97536
2018-05-03T05:12:33.641Z,97538
2018-05-03T05:15:09.083Z,97549
2018-05-03T05:17:43.160Z,97552
2018-05-03T05:20:19.847Z,97553
2018-05-03T05:22:55.740Z,97553
2018-05-03T05:25:31.784Z,97552
2018-05-03T05:28:05.621Z,97551
2018-05-03T05:30:37.620Z,97544
2018-05-03T05:33:10.021Z,97549
2018-05-03T05:35:44.123Z,97544
2018-05-03T05:38:17.785Z,97551
2018-05-03T05:40:50.598Z,97554
2018-05-03T05:43:27.380Z,97558
2018-05-03T05:46:03.363Z,97568
2018-05-03T05:48:38.560Z,97567
2018-05-03T05:51:14.397Z,97573
2018-05-03T05:53:48.425Z,97579
2018-05-03T05:56:21.255Z,97575
2018-05-03T05:58:55.039Z,97580
2018-05-03T06:01:28.218Z,97585
2018-05-03T06:04:00.716Z,97590
2018-05-03T06:06:32.885Z,97583
2018-05-03T06:09:07.743Z,97577
2018-05-03T06:11:39.766Z,97575
2018-05-03T06:14:13.922Z,97575
2018-05-03T06:16:48.680Z,97573
2018-05-03T06:19:23.325Z,97581
2018-05-03T06:21:56.967Z,97585
2018-05-03T06:24:30.261Z,97593
2018-05-03T06:27:06.317Z,97589
2018-05-03T06:29:41.482Z,97584
2018-05-03T06:32:13.918Z,97588
2018-05-03T06:34:47.060Z,97591
2018-05-03T06:37:20.201Z,97589
2018-05-03T06:39:55.038Z,97595
2018-05-03T06:42:28.785Z,97596
2018-05-03T06:45:05.272Z,97596
2018-05-03T06:47:39.542Z,97591
2018-05-03T06:50:16.944Z,97589
2018-05-03T06:52:49.727Z,97592
2018-05-03T06:55:23.981Z,97597
2018-05-03T06:57:57.104Z,97601
2018-05-03T07:00:31.736Z,97608
2018-05-03T07:03:03.684Z,97608
2018-05-03T07:05:37.061Z,97613
2018-05-03T07:08:12.480Z,97614
2018-05-03T07:10:45.939Z,97610
2018-05-03T07:13:18.659Z,97598
2018-05-03T07:15:51.660Z,97594
2018-05-03T07:18:23.862Z,97597
2018-05-03T07:20:56.877Z,97601
2018-05-03T07:23:30.863Z,97600
2018-05-03T07:26:05.901Z,97602
2018-05-03T07:28:38.462Z,97609
2018-05-03T07:31:11.244Z,97613
2018-05-03T07:33:44.486Z,97609
2018-05-03T07:36:17.685Z,97604
2018-05-03T07:38:51.606Z,97596
2018-05-03T07:41:25.067Z,97597
2018-05-03T07:43:57.618Z,97602
2018-05-03T07:46:32.019Z,97601
2018-05-03T07:49:04.460Z,97608
2018-05-03T07:51:39.915Z,97601
2018-05-03T07:54:14.321Z,97610
2018-05-03T07:56:47.209Z,97612
2018-05-03T07:59:25.458Z,97609
2018-05-03T08:01:59.050Z,97611
2018-05-03T08:04:38.751Z,97612
2018-05-03T08:07:12.198Z,97611
2018-05-03T08:09:47.941Z,97614
2018-05-03T08:12:20.146Z,97619
2018-05-03T08:14:53.961Z,97618
2018-05-03T08:17:30.479Z,97619
2018-05-03T08:20:06.724Z,97611
2018-05-03T08:22:43.277Z,97604
2018-05-03T08:25:19.664Z,97609
2018-05-03T08:27:57.238Z,97614
2018-05-03T08:30:30.643Z,97605
2018-05-03T08:33:03.918Z,97610
2018-05-03T08:35:38.179Z,97604
2018-05-03T08:38:13.064Z,97606
2018-05-03T08:40:45.618Z,97607
2018-05-03T08:43:19.663Z,97609
2018-05-03T08:45:55.141Z,97614
2018-05-03T08:48:27.961Z,97613
2018-05-03T08:51:02.244Z,97621
2018-05-03T08:53:37.139Z,97621
2018-05-03T08:56:10.580Z,97621
2018-05-03T08:58:42.985Z,97620
2018-05-03T09:01:19.555Z,97620
2018-05-03T09:03:54.345Z,97621
2018-05-03T09:06:28.861Z,97621
2018-05-03T09:09:03.900Z,97617
2018-05-03T09:11:40.329Z,97611
2018-05-03T09:14:16.065Z,97609
2018-05-03T09:16:54.482Z,97619
2018-05-03T09:19:27.725Z,97616
2018-05-03T09:22:00.832Z,97617
2018-05-03T09:24:35.045Z,97618
2018-05-03T09:27:08.103Z,97613
2018-05-03T09:29:44.541Z,97622
2018-05-03T09:32:16.983Z,97624
2018-05-03T09:34:52.339Z,97628
2018-05-03T09:37:25.985Z,97635
2018-05-03T09:40:00.726Z,97634
2018-05-03T09:42:35.115Z,97634
2018-05-03T09:45:10.362Z,97636
2018-05-03T09:47:44.645Z,97644
2018-05-03T09:50:20.821Z,97654
2018-05-03T09:52:58.460Z,97655
2018-05-03T09:55:32.402Z,97660
2018-05-03T09:58:04.481Z,97656
2018-05-03T10:00:40.581Z,97661
2018-05-03T10:03:14.062Z,97660
2018-05-03T10:05:48.677Z,97657
2018-05-03T10:08:20.861Z,97661
2018-05-03T10:10:56.164Z,97665
2018-05-03T10:13:30.742Z,97668
2018-05-03T10:16:05.961Z,97663
2018-05-03T10:18:42.501Z,97664
2018-05-03T10:21:14.860Z,97667
2018-05-03T10:23:47.979Z,97667
2018-05-03T10:26:21.182Z,97662
2018-05-03T10:28:55.877Z,97667
2018-05-03T10:31:33.344Z,97665
2018-05-03T10:34:05.765Z,97665
2018-05-03T10:36:39.663Z,97663
2018-05-03T10:39:14.217Z,97666
2018-05-03T10:41:47.026Z,97663
2018-05-03T10:44:21.465Z,97655
2018-05-03T10:46:56.561Z,97658
2018-05-03T10:49:31.140Z,97653
2018-05-03T10:52:03.597Z,97655
2018-05-03T10:54:36.764Z,97649
2018-05-03T10:57:13.260Z,97657
2018-05-03T10:59:46.044Z,97658
2018-05-03T11:02:22.507Z,97654
2018-05-03T11:04:55.977Z,97654
2018-05-03T11:07:29.765Z,97658
2018-05-03T11:10:03.743Z,97642
2018-05-03T11:12:40.020Z,97650
2018-05-03T11:15:17.778Z,97651
2018-05-03T11:17:51.259Z,97639
2018-05-03T11:20:27.459Z,97645
2018-05-03T11:23:02.746Z,97636
2018-05-03T11:25:36.525Z,97641
2018-05-03T11:28:11.104Z,97647
2018-05-03T11:30:46.075Z,97640
2018-05-03T11:33:18.643Z,97644
2018-05-03T11:35:51.959Z,97645
2018-05-03T11:38:24.499Z,97647
2018-05-03T11:41:00.184Z,97649
2018-05-03T11:43:36.901Z,97652
2018-05-03T11:46:10.037Z,97651
2018-05-03T11:48:43.294Z,97640
2018-05-03T11:51:20.800Z,97641
2018-05-03T11:53:56.822Z,97635
2018-05-03T11:56:31.847Z,97636
2018-05-03T11:59:06.790Z,97633
2018-05-03T12:01:40.601Z,97636
2018-05-03T12:04:16.217Z,97636
2018-05-03T12:06:49.205Z,97632
2018-05-03T12:09:22.748Z,97625
2018-05-03T12:11:56.038Z,97619
2018-05-03T12:14:28.662Z,97620
2018-05-03T12:17:01.564Z,97626
2018-05-03T12:19:34.800Z,97618
2018-05-03T12:22:07.243Z,97620
2018-05-03T12:24:40.722Z,97625
2018-05-03T12:27:17.279Z,97623
2018-05-03T12:29:52.783Z,97618
2018-05-03T12:32:26.618Z,97610
2018-05-03T12:35:02.881Z,97619
2018-05-03T12:37:39.537Z,97618
2018-05-03T12:40:16.445Z,97609
2018-05-03T12:42:51.406Z,97611
2018-05-03T12:45:27.049Z,97614
2018-05-03T12:48:04.224Z,97609
2018-05-03T12:50:41.842Z,97612
2018-05-03T12:53:14.902Z,97608
2018-05-03T12:55:52.525Z,97605
2018-05-03T12:58:27.779Z,97607
2018-05-03T13:01:02.331Z,97602
2018-05-03T13:03:35.743Z,97604
2018-05-03T13:06:08.440Z,97592
2018-05-03T13:08:45.884Z,97594
2018-05-03T13:11:21.126Z,97599
2018-05-03T13:13:58.156Z,97595
2018-05-03T13:16:35.079Z,97583
2018-05-03T13:19:09.417Z,97585
2018-05-03T13:21:45.437Z,97585
2018-05-03T13:24:18.824Z,97575
2018-05-03T13:26:53.880Z,97575
2018-05-03T13:29:27.400Z,97574
2018-05-03T13:32:00.618Z,97573
2018-05-03T13:34:33.789Z,97567
2018-05-03T13:37:07.846Z,97567
2018-05-03T13:39:41.102Z,97575
2018-05-03T13:42:14.101Z,97582
2018-05-03T13:44:46.738Z,97582
2018-05-03T13:47:20.354Z,97584
2018-05-03T13:49:53.347Z,97584
2018-05-03T13:52:27.184Z,97581
2018-05-03T13:55:00.980Z,97578
2018-05-03T13:57:33.386Z,97582
2018-05-03T14:00:09.804Z,97579
2018-05-03T14:02:44.941Z,97582
2018-05-03T14:05:17.566Z,97573
2018-05-03T14:07:53.925Z,97575
2018-05-03T14:10:32.308Z,97567
2018-05-03T14:13:06.986Z,97571
2018-05-03T14:15:43.278Z,97573
2018-05-03T14:18:16.744Z,97574
2018-05-03T14:20:52.990Z,97576
2018-05-03T14:23:28.399Z,97576
2018-05-03T14:26:01.801Z,97569
2018-05-03T14:28:39.404Z,97575
2018-05-03T14:31:15.220Z,97575
2018-05-03T14:33:48.860Z,97576
2018-05-03T14:36:24.062Z,97589
2018-05-03T14:38:57.678Z,97610
2018-05-03T14:41:31.339Z,97593
2018-05-03T14:44:04.362Z,97586
2018-05-03T14:46:38.343Z,97593
2018-05-03T14:49:11.961Z,97598
2018-05-03T14:51:47.299Z,97598
2018-05-03T14:54:24.619Z,97590
2018-05-03T14:56:57.424Z,97590
2018-05-03T14:59:35.903Z,97591
2018-05-03T15:02:10.602Z,97586
2018-05-03T15:04:46.325Z,97593
2018-05-03T15:07:21.321Z,97593
2018-05-03T15:09:57.321Z,97603
2018-05-03T15:12:32.221Z,97596
2018-05-03T15:15:07.123Z,97604
2018-05-03T15:17:41.603Z,97605
2018-05-03T15:20:20.356Z,97607
2018-05-03T15:22:58.739Z,97616
2018-05-03T15:25:35.720Z,97615
2018-05-03T15:28:10.457Z,97616
2018-05-03T15:30:48.941Z,97618
2018-05-03T15:33:26.822Z,97623
2018-05-03T15:36:00.658Z,97612
2018-05-03T15:38:35.979Z,97619
2018-05-03T15:41:08.417Z,97619
2018-05-03T15:43:41.922Z,97617
2018-05-03T15:46:16.500Z,97619
2018-05-03T15:48:50.120Z,97619
2018-05-03T15:51:22.617Z,97615
2018-05-03T15:53:56.300Z,97616
2018-05-03T15:56:30.359Z,97616
2018-05-03T15:59:04.004Z,97617
2018-05-03T16:01:39.518Z,97615
2018-05-03T16:04:14.509Z,97626
2018-05-03T16:06:51.482Z,97626
2018-05-03T16:09:26.120Z,97627
2018-05-03T16:11:58.747Z,97630
2018-05-03T16:14:34.139Z,97634
2018-05-03T16:17:13.684Z,97631
2018-05-03T16:19:45.921Z,97632
2018-05-03T16:22:24.463Z,97646
2018-05-03T16:24:59.584Z,97639
2018-05-03T16:27:35.399Z,97642
2018-05-03T16:30:08.717Z,97642
2018-05-03T16:32:44.526Z,97638
2018-05-03T16:35:19.398Z,97645
2018-05-03T16:37:52.804Z,97638
2018-05-03T16:40:27.717Z,97644
2018-05-03T16:43:00.908Z,97646
2018-05-03T16:45:35.683Z,97650
2018-05-03T16:48:10.360Z,97648
2018-05-03T16:50:44.222Z,97647
2018-05-03T16:53:19.996Z,97652
2018-05-03T16:55:56.125Z,97645
2018-05-03T16:58:32.219Z,97654
2018-05-03T17:01:06.937Z,97660
2018-05-03T17:03:39.740Z,97663
2018-05-03T17:06:15.124Z,97660
2018-05-03T17:08:51.041Z,97663
2018-05-03T17:11:26.086Z,97657
2018-05-03T17:13:58.897Z,97657
2018-05-03T17:16:33.000Z,97660
2018-05-03T17:19:06.800Z,97655
2018-05-03T17:21:40.936Z,97655
2018-05-03T17:24:16.783Z,97658
2018-05-03T17:26:49.335Z,97676
2018-05-03T17:29:23.780Z,97680
2018-05-03T17:31:56.140Z,97679
2018-05-03T17:34:28.483Z,97682
2018-05-03T17:37:01.746Z,97686
2018-05-03T17:39:35.486Z,97682
2018-05-03T17:42:10.380Z,97690
2018-05-03T17:44:45.377Z,97695
2018-05-03T17:47:19.758Z,97707
2018-05-03T17:49:52.666Z,97707
2018-05-03T17:52:28.559Z,97712
2018-05-03T17:55:02.759Z,97712
2018-05-03T17:57:36.807Z,97721
2018-05-03T18:00:11.820Z,97717
2018-05-03T18:02:44.058Z,97724
2018-05-03T18:05:18.278Z,97731
2018-05-03T18:07:50.240Z,97738
2018-05-03T18:10:26.744Z,97738
2018-05-03T18:13:01.547Z,97750
2018-05-03T18:15:37.099Z,97756
2018-05-03T18:18:11.159Z,97762
2018-05-03T18:20:47.381Z,97764
2018-05-03T18:23:22.222Z,97772
2018-05-03T18:25:55.682Z,97774
2018-05-03T18:28:28.499Z,97778
2018-05-03T18:31:02.641Z,97792
2018-05-03T18:33:35.539Z,97796
2018-05-03T18:36:10.260Z,97802
2018-05-03T18:38:45.382Z,97816
2018-05-03T18:41:19.424Z,97818
2018-05-03T18:43:53.442Z,97823
2018-05-03T18:46:27.788Z,97824
2018-05-03T18:49:01.823Z,97824
2018-05-03T18:51:36.335Z,97832
2018-05-03T18:54:08.986Z,97825
2018-05-03T18:56:43.404Z,97828
2018-05-03T18:59:16.422Z,97832
2018-05-03T19:01:49.525Z,97837
2018-05-03T19:04:22.243Z,97844
2018-05-03T19:06:57.184Z,97846
2018-05-03T19:09:28.922Z,97850
2018-05-03T19:12:03.284Z,97850
2018-05-03T19:14:36.683Z,97859
2018-05-03T19:17:10.407Z,97865
2018-05-03T19:19:45.381Z,97863
2018-05-03T19:22:18.545Z,97865
2018-05-03T19:24:53.117Z,97862
2018-05-03T19:27:27.720Z,97859
2018-05-03T19:30:00.900Z,97863
2018-05-03T19:32:36.502Z,97875
2018-05-03T19:35:11.566Z,97883
2018-05-03T19:37:43.963Z,97884
2018-05-03T19:40:18.380Z,97882
2018-05-03T19:42:52.959Z,97881
2018-05-03T19:45:25.441Z,97884
2018-05-03T19:47:57.879Z,97886
2018-05-03T19:50:32.884Z,97892
2018-05-03T19:53:06.018Z,97891
2018-05-03T19:55:38.261Z,97892
2018-05-03T19:58:10.636Z,97893
2018-05-03T20:00:42.524Z,97895
2018-05-03T20:03:16.861Z,97901
2018-05-03T20:05:51.388Z,97899
2018-05-03T20:08:25.063Z,97899
2018-05-03T20:10:59.002Z,97900
2018-05-03T20:13:33.296Z,97902
2018-05-03T20:16:06.639Z,97905
2018-05-03T20:18:41.562Z,97905
2018-05-03T20:21:14.469Z,97919
2018-05-03T20:23:48.889Z,97923
2018-05-03T20:26:23.060Z,97920
2018-05-03T20:28:58.563Z,97920
2018-05-03T20:31:31.341Z,97930
2018-05-03T20:34:06.524Z,97931
2018-05-03T20:36:39.340Z,97933
2018-05-03T20:39:12.520Z,97933
2018-05-03T20:41:46.440Z,97931
2018-05-03T20:44:19.203Z,97938
2018-05-03T20:46:51.645Z,97939
2018-05-03T20:49:24.701Z,97943
2018-05-03T20:51:57.652Z,97948
2018-05-03T20:54:32.063Z,97948
2018-05-03T20:57:04.519Z,97952
2018-05-03T20:59:38.200Z,97949
2018-05-03T21:02:11.066Z,97949
2018-05-03T21:04:43.500Z,97952
2018-05-03T21:07:16.301Z,97953
2018-05-03T21:09:50.098Z,97958
2018-05-03T21:12:23.446Z,97960
2018-05-03T21:14:57.137Z,97960
2018-05-03T21:17:30.143Z,97963
2018-05-03T21:20:03.463Z,97963
2018-05-03T21:22:36.379Z,97962
2018-05-03T21:25:09.663Z,97961
2018-05-03T21:27:43.247Z,97963
2018-05-03T21:30:18.168Z,97967
2018-05-03T21:32:52.816Z,97966
2018-05-03T21:35:26.346Z,97963
2018-05-03T21:37:58.683Z,97965
2018-05-03T21:40:34.045Z,97969
2018-05-03T21:43:07.460Z,97964
2018-05-03T21:45:41.700Z,97963
2018-05-03T21:48:15.223Z,97960
2018-05-03T21:50:48.782Z,97955
2018-05-03T21:53:24.699Z,97957
2018-05-03T21:55:57.341Z,97957
2018-05-03T21:58:29.979Z,97956
2018-05-03T22:01:05.577Z,97951
2018-05-03T22:03:39.126Z,97953
2018-05-03T22:06:12.063Z,97952
2018-05-03T22:08:45.839Z,97950
2018-05-03T22:33:26.942Z,97973
2018-05-03T22:36:00.180Z,97970
2018-05-03T22:38:32.625Z,97975
2018-05-03T22:41:08.959Z,97977
2018-05-03T22:43:41.507Z,97980
2018-05-03T22:46:14.423Z,97982
2018-05-03T22:48:47.780Z,97981
2018-05-03T22:51:22.867Z,97979
2018-05-03T22:53:55.217Z,97982
2018-05-03T22:56:28.920Z,97977
2018-05-03T22:59:01.581Z,97973
2018-05-03T23:01:33.787Z,97966
2018-05-03T23:04:07.923Z,97966
2018-05-03T23:06:42.999Z,97960
2018-05-03T23:09:15.623Z,97969
2018-05-03T23:11:48.238Z,97972
2018-05-03T23:14:22.599Z,97979
2018-05-03T23:16:55.746Z,97974
2018-05-03T23:19:29.402Z,97976
2018-05-03T23:22:01.579Z,97977
2018-05-03T23:24:34.317Z,97977
2018-05-03T23:27:07.397Z,97979
2018-05-03T23:29:40.121Z,97976
2018-05-03T23:32:12.641Z,97978
2018-05-03T23:34:45.479Z,97977
2018-05-03T23:37:20.385Z,97983
2018-05-03T23:39:53.346Z,97981
2018-05-03T23:42:25.016Z,97983
2018-05-03T23:44:58.366Z,97984
2018-05-03T23:47:31.128Z,97983
2018-05-03T23:50:04.705Z,97977
2018-05-03T23:52:37.565Z,97973
2018-05-03T23:55:10.180Z,97977
2018-05-03T23:57:42.738Z,97980
